Time;durP1;ratioP1;P1;durP2;ratioP2;P2;SDS_P1;SDS_P2;PMS_P1;PMS_P2;Temp;Humidity;BMP_temperature;BMP_pressure;BME280_temperature;BME280_humidity;BME280_pressure;Samples;Min_cycle;Max_cycle;Signal;HPM_P1;HPM_P2
2021/03/20 00:02:23;;;;;;;13.63;9.15;;;10.50;47.40;;;;;;5075464;28;20115;-79
2021/03/20 00:04:48;;;;;;;13.32;9.23;;;10.40;47.50;;;;;;5057890;28;20025;-81
2021/03/20 00:07:14;;;;;;;13.50;9.20;;;10.40;47.40;;;;;;5075347;28;20358;-80
2021/03/20 00:09:40;;;;;;;12.20;8.30;;;10.40;47.20;;;;;;5075487;28;20073;-80
2021/03/20 00:12:06;;;;;;;11.13;7.70;;;10.50;46.90;;;;;;5075378;28;20044;-80
2021/03/20 00:14:32;;;;;;;13.02;8.50;;;10.40;47.10;;;;;;5075223;28;20028;-79
2021/03/20 00:16:58;;;;;;;14.00;8.05;;;10.40;46.90;;;;;;5075322;28;20036;-79
2021/03/20 00:19:23;;;;;;;12.02;8.10;;;10.30;46.50;;;;;;5075048;28;20150;-77
2021/03/20 00:21:49;;;;;;;14.02;7.97;;;10.20;46.50;;;;;;5075314;28;20024;-80
2021/03/20 00:24:15;;;;;;;11.63;7.15;;;10.20;46.40;;;;;;5075078;28;20031;-79
2021/03/20 00:26:42;;;;;;;12.43;7.20;;;10.20;46.40;;;;;;5056621;28;20029;-77
2021/03/20 00:29:08;;;;;;;11.05;7.18;;;10.10;46.40;;;;;;5075102;28;20048;-76
2021/03/20 00:31:38;;;;;;;12.68;6.55;;;10.00;46.20;;;;;;5074541;28;20040;-76
2021/03/20 00:34:04;;;;;;;10.02;6.60;;;9.90;47.10;;;;;;5056891;28;20028;-78
2021/03/20 00:36:30;;;;;;;9.00;6.35;;;9.90;47.10;;;;;;5074122;28;20021;-80
2021/03/20 00:38:56;;;;;;;10.07;6.38;;;9.90;47.10;;;;;;5075115;28;20389;-81
2021/03/20 00:41:21;;;;;;;9.23;6.03;;;9.90;47.00;;;;;;5074689;28;20028;-79
2021/03/20 00:43:47;;;;;;;9.25;6.35;;;9.90;46.60;;;;;;5074674;28;20032;-80
2021/03/20 00:46:13;;;;;;;11.43;6.72;;;10.00;45.80;;;;;;5074480;28;20090;-79
2021/03/20 00:48:40;;;;;;;9.90;5.88;;;10.00;45.30;;;;;;5074219;28;20054;-79
2021/03/20 00:51:07;;;;;;;9.40;5.78;;;10.10;44.90;;;;;;5056194;28;20150;-80
2021/03/20 00:53:33;;;;;;;12.48;5.85;;;10.10;44.70;;;;;;5074147;28;20016;-79
2021/03/20 00:56:00;;;;;;;9.23;5.28;;;10.10;44.70;;;;;;5074268;28;20030;-78
2021/03/20 00:58:37;;;;;;;8.95;5.47;;;10.20;44.00;;;;;;5074390;28;20030;-80
2021/03/20 01:01:14;;;;;;;7.93;5.55;;;10.20;43.70;;;;;;5074271;28;20478;-77
2021/03/20 01:03:41;;;;;;;7.95;4.68;;;10.30;44.30;;;;;;5074613;28;20024;-80
2021/03/20 01:06:09;;;;;;;8.30;5.35;;;10.30;43.50;;;;;;5074081;28;20067;-78
2021/03/20 01:08:36;;;;;;;7.45;4.50;;;10.20;43.20;;;;;;5074015;28;20020;-75
2021/03/20 01:11:02;;;;;;;7.70;4.82;;;10.30;43.30;;;;;;5056145;28;20374;-79
2021/03/20 01:13:29;;;;;;;9.73;5.00;;;10.30;42.90;;;;;;5073805;28;20078;-78
2021/03/20 01:15:54;;;;;;;9.07;5.07;;;10.40;42.80;;;;;;5055867;28;20138;-73
2021/03/20 01:18:20;;;;;;;8.95;5.18;;;10.40;42.90;;;;;;5074201;28;20072;-79
2021/03/20 01:20:46;;;;;;;6.85;4.20;;;10.40;42.60;;;;;;5074194;28;20470;-79
2021/03/20 01:23:13;;;;;;;7.80;4.68;;;10.30;42.60;;;;;;5073732;28;20063;-78
2021/03/20 01:25:39;;;;;;;7.00;4.25;;;10.30;42.30;;;;;;5055960;28;20363;-81
2021/03/20 01:28:06;;;;;;;7.55;4.57;;;10.20;42.40;;;;;;5074586;28;20066;-80
2021/03/20 01:30:35;;;;;;;6.85;4.30;;;10.20;42.50;;;;;;5074402;28;20043;-80
2021/03/20 01:33:01;;;;;;;12.27;4.70;;;10.20;42.70;;;;;;5073964;28;20025;-76
2021/03/20 01:35:29;;;;;;;6.57;3.85;;;10.20;42.40;;;;;;5073925;28;20028;-80
2021/03/20 01:37:55;;;;;;;6.68;4.00;;;10.20;41.80;;;;;;5074703;28;20021;-81
2021/03/20 01:40:24;;;;;;;7.13;4.30;;;10.20;42.20;;;;;;5074185;28;20033;-77
2021/03/20 01:42:50;;;;;;;7.63;3.90;;;10.10;41.50;;;;;;5074013;28;20035;-80
2021/03/20 01:45:26;;;;;;;6.28;3.97;;;10.10;41.80;;;;;;5074062;28;20025;-80
2021/03/20 01:47:54;;;;;;;6.30;3.92;;;10.20;42.40;;;;;;5075138;28;20028;-79
2021/03/20 01:50:30;;;;;;;6.63;4.28;;;10.20;41.60;;;;;;5074031;28;20405;-79
2021/03/20 01:53:01;;;;;;;8.57;3.80;;;10.20;42.10;;;;;;5040767;28;20028;-80
2021/03/20 01:55:27;;;;;;;7.95;4.18;;;10.20;41.80;;;;;;5073561;28;20021;-70
2021/03/20 01:58:00;;;;;;;7.30;4.80;;;10.10;41.50;;;;;;5073609;28;20024;-73
2021/03/20 02:00:37;;;;;;;8.23;4.20;;;10.10;41.70;;;;;;5073057;28;20021;-75
2021/03/20 02:03:07;;;;;;;8.02;4.47;;;10.00;41.50;;;;;;5072830;28;20017;-71
2021/03/20 02:05:33;;;;;;;7.00;4.57;;;10.00;41.60;;;;;;5073104;28;20108;-70
2021/03/20 02:08:03;;;;;;;7.68;4.25;;;10.00;41.60;;;;;;5073197;28;20067;-71
2021/03/20 02:10:33;;;;;;;6.15;4.05;;;10.00;41.80;;;;;;5057283;28;20040;-80
2021/03/20 02:13:07;;;;;;;6.80;4.47;;;9.90;42.60;;;;;;5077525;28;20478;-78
2021/03/20 02:15:46;;;;;;;;;;;9.90;42.90;;;;;;5078223;28;20025;-77
2021/03/20 02:18:32;;;;;;;7.35;4.38;;;10.00;41.80;;;;;;5077680;28;19917;-79
2021/03/20 02:21:04;;;;;;;7.03;4.38;;;10.00;42.20;;;;;;5077346;28;20024;-77
2021/03/20 02:23:42;;;;;;;8.57;4.55;;;10.00;42.10;;;;;;5077765;28;20093;-80
2021/03/20 02:26:16;;;;;;;6.72;4.22;;;9.90;43.30;;;;;;5077341;28;20105;-78
2021/03/20 02:29:15;;;;;;;7.20;4.30;;;9.70;43.00;;;;;;5077214;28;20097;-79
2021/03/20 02:32:05;;;;;;;8.32;4.50;;;9.70;43.40;;;;;;5076513;28;20032;-71
2021/03/20 02:34:33;;;;;;;8.90;4.05;;;9.60;43.40;;;;;;5020811;28;20462;-70
2021/03/20 02:37:10;;;;;;;7.30;4.45;;;9.50;42.90;;;;;;5076324;28;20039;-70
2021/03/20 02:39:59;;;;;;;8.02;3.92;;;9.50;43.40;;;;;;5076430;28;20023;-68
2021/03/20 02:42:45;;;;;;;6.57;4.35;;;9.50;43.30;;;;;;5076336;28;20104;-70
2021/03/20 02:45:29;;;;;;;6.63;4.00;;;9.50;43.20;;;;;;5077146;28;20032;-77
2021/03/20 02:48:18;;;;;;;6.68;4.38;;;9.60;43.20;;;;;;5078284;28;20131;-79
2021/03/20 02:51:02;;;;;;;8.02;4.05;;;9.50;42.80;;;;;;5078132;28;20536;-81
2021/03/20 02:53:33;;;;;;;;;;;9.50;43.00;;;;;;5077447;28;20016;-79
2021/03/20 02:56:01;;;;;;;6.38;3.70;;;9.50;42.00;;;;;;5076849;28;19904;-80
2021/03/20 02:58:51;;;;;;;6.43;3.92;;;9.50;42.30;;;;;;5076713;28;20427;-80
2021/03/20 03:01:22;;;;;;;5.63;3.83;;;9.40;42.80;;;;;;5076681;28;20032;-79
2021/03/20 03:03:50;;;;;;;7.55;4.50;;;9.30;42.30;;;;;;5076324;28;20044;-80
2021/03/20 03:06:46;;;;;;;6.30;3.92;;;9.40;42.50;;;;;;5076409;28;20099;-75
2021/03/20 03:09:47;;;;;;;7.82;4.25;;;9.40;43.50;;;;;;5076288;28;20028;-73
2021/03/20 03:12:28;;;;;;;7.30;4.18;;;9.30;43.90;;;;;;5070836;28;20393;-70
2021/03/20 03:15:01;;;;;;;7.90;4.13;;;9.20;43.00;;;;;;5076202;28;20027;-78
2021/03/20 03:17:27;;;;;;;7.57;4.40;;;9.20;43.20;;;;;;5076731;28;20040;-73
2021/03/20 03:20:14;;;;;;;6.95;3.90;;;9.20;43.50;;;;;;5076357;28;20075;-73
2021/03/20 03:23:04;;;;;;;6.00;3.92;;;9.20;43.60;;;;;;5075974;28;20323;-75
2021/03/20 03:25:32;;;;;;;6.70;4.07;;;9.20;43.30;;;;;;5074879;28;20040;-76
2021/03/20 03:28:01;;;;;;;6.07;3.80;;;9.10;42.90;;;;;;5076002;28;20025;-77
2021/03/20 03:30:28;;;;;;;7.65;4.40;;;9.20;43.40;;;;;;5075757;28;20033;-75
2021/03/20 03:33:31;;;;;;;7.13;4.20;;;9.20;43.40;;;;;;5075706;28;20026;-78
2021/03/20 03:36:00;;;;;;;6.85;4.10;;;9.10;43.90;;;;;;5076053;28;20029;-76
2021/03/20 03:38:50;;;;;;;6.22;3.95;;;9.00;43.50;;;;;;5076033;28;20024;-79
2021/03/20 03:41:36;;;;;;;6.40;3.72;;;9.10;44.10;;;;;;5075880;28;20028;-74
2021/03/20 03:44:03;;;;;;;5.90;3.67;;;9.10;44.20;;;;;;5076224;28;20021;-79
2021/03/20 03:46:32;;;;;;;7.47;4.57;;;9.30;43.70;;;;;;5057979;28;20377;-77
2021/03/20 03:49:00;;;;;;;5.95;3.92;;;9.20;43.20;;;;;;5075588;28;20017;-78
2021/03/20 03:51:28;;;;;;;7.35;4.00;;;9.10;43.40;;;;;;5075664;28;20025;-75
2021/03/20 03:53:57;;;;;;;6.40;3.50;;;9.10;43.60;;;;;;5075766;28;20028;-78
2021/03/20 03:56:40;;;;;;;7.95;3.88;;;9.00;43.80;;;;;;5075282;28;20024;-77
2021/03/20 03:59:19;;;;;;;8.73;4.30;;;9.00;44.30;;;;;;5075072;28;20028;-77
2021/03/20 04:01:48;;;;;;;7.25;4.10;;;9.00;44.50;;;;;;5075599;28;20040;-78
2021/03/20 04:04:29;;;;;;;10.00;4.25;;;8.90;43.70;;;;;;5075963;28;20513;-80
2021/03/20 04:06:54;;;;;;;5.80;4.00;;;8.90;44.10;;;;;;5057589;28;20040;-79
2021/03/20 04:09:35;;;;;;;8.07;4.32;;;8.90;43.80;;;;;;5075584;28;20024;-78
2021/03/20 04:12:25;;;;;;;7.03;4.03;;;8.90;44.30;;;;;;5075443;28;20040;-74
2021/03/20 04:15:23;;;;;;;7.47;4.32;;;8.90;44.40;;;;;;5075567;28;20134;-80
2021/03/20 04:18:19;;;;;;;6.93;4.05;;;9.00;44.60;;;;;;5075534;28;20103;-79
2021/03/20 04:20:55;;;;;;;6.13;3.85;;;9.00;44.20;;;;;;5042401;28;20040;-81
2021/03/20 04:24:00;;;;;;;7.88;4.20;;;8.90;44.00;;;;;;5075129;28;20037;-79
2021/03/20 04:26:51;;;;;;;7.93;3.85;;;8.70;44.40;;;;;;5074724;28;20028;-75
2021/03/20 04:29:20;;;;;;;6.60;4.13;;;8.80;44.70;;;;;;5074897;28;20074;-80
2021/03/20 04:31:52;;;;;;;6.28;3.92;;;9.00;43.70;;;;;;5074793;28;20041;-79
2021/03/20 04:34:38;;;;;;;7.53;4.18;;;9.10;43.40;;;;;;5074450;28;20115;-78
2021/03/20 04:37:09;;;;;;;9.32;5.30;;;9.10;44.10;;;;;;5075169;28;20037;-80
2021/03/20 04:39:41;;;;;;;9.07;4.22;;;9.10;43.20;;;;;;5074596;28;20024;-77
2021/03/20 04:42:07;;;;;;;6.80;4.00;;;9.00;43.10;;;;;;5074645;28;20028;-79
2021/03/20 04:44:35;;;;;;;6.47;4.25;;;8.90;43.20;;;;;;5074564;28;20024;-79
2021/03/20 04:47:05;;;;;;;6.85;3.90;;;8.80;43.70;;;;;;5074648;28;20081;-80
2021/03/20 04:49:52;;;;;;;6.78;3.65;;;8.80;43.50;;;;;;5075430;28;20355;-79
2021/03/20 04:52:22;;;;;;;7.28;4.03;;;9.00;44.20;;;;;;5075134;28;20032;-78
2021/03/20 04:54:49;;;;;;;6.60;3.53;;;9.00;43.50;;;;;;5074874;28;20103;-78
2021/03/20 04:57:31;;;;;;;6.82;3.70;;;9.00;43.50;;;;;;5074323;28;20024;-78
2021/03/20 05:00:22;;;;;;;6.68;3.88;;;8.80;44.20;;;;;;5074538;28;20017;-80
2021/03/20 05:02:53;;;;;;;7.28;4.47;;;8.70;44.30;;;;;;5074120;28;20028;-78
2021/03/20 05:05:27;;;;;;;8.07;3.88;;;8.80;43.70;;;;;;5074108;28;20300;-76
2021/03/20 05:07:54;;;;;;;7.82;4.03;;;9.00;43.60;;;;;;5074280;28;20025;-79
2021/03/20 05:10:31;;;;;;;7.57;4.13;;;9.00;43.50;;;;;;5073722;28;20035;-79
2021/03/20 05:13:00;;;;;;;7.45;4.00;;;9.00;43.10;;;;;;5074688;28;20032;-79
2021/03/20 05:15:32;;;;;;;6.70;3.90;;;9.10;43.30;;;;;;5073792;28;20016;-76
2021/03/20 05:17:57;;;;;;;7.35;3.92;;;9.00;43.30;;;;;;5073927;28;20053;-79
2021/03/20 05:20:24;;;;;;;7.35;4.45;;;9.10;43.70;;;;;;5074010;28;20035;-79
2021/03/20 05:22:50;;;;;;;7.78;4.07;;;9.10;43.40;;;;;;5073349;28;20043;-77
2021/03/20 05:25:20;;;;;;;5.72;3.80;;;9.10;43.50;;;;;;5073893;28;20024;-77
2021/03/20 05:27:46;;;;;;;7.80;4.10;;;9.10;43.30;;;;;;5073875;28;20139;-74
2021/03/20 05:30:13;;;;;;;7.38;4.13;;;8.90;43.20;;;;;;5074174;28;20060;-75
2021/03/20 05:32:40;;;;;;;7.85;4.32;;;8.90;43.60;;;;;;5075556;28;20028;-79
2021/03/20 05:35:09;;;;;;;7.70;4.32;;;8.90;43.40;;;;;;5074770;28;20020;-75
2021/03/20 05:37:37;;;;;;;6.57;4.05;;;9.00;43.40;;;;;;5056520;28;20090;-78
2021/03/20 05:40:15;;;;;;;8.20;4.47;;;9.10;43.50;;;;;;5056890;28;20035;-81
2021/03/20 05:43:07;;;;;;;6.75;4.32;;;9.10;43.90;;;;;;5074832;28;20046;-79
2021/03/20 05:45:50;;;;;;;6.20;3.92;;;9.00;44.20;;;;;;5036003;28;20388;-81
2021/03/20 05:48:37;;;;;;;7.70;4.18;;;9.00;43.40;;;;;;5075799;28;20060;-77
2021/03/20 05:51:27;;;;;;;9.38;4.45;;;8.90;44.20;;;;;;5074779;28;20024;-81
2021/03/20 05:54:18;;;;;;;7.35;4.20;;;8.70;44.60;;;;;;5074113;28;20027;-81
2021/03/20 05:57:28;;;;;;;7.95;4.10;;;8.70;43.80;;;;;;5074646;28;20021;-79
2021/03/20 06:00:25;;;;;;;6.35;3.70;;;8.70;44.60;;;;;;5070425;28;20040;-69
2021/03/20 06:02:54;;;;;;;6.63;3.78;;;8.90;44.60;;;;;;5073867;28;20021;-71
2021/03/20 06:05:32;;;;;;;5.95;3.80;;;8.80;44.40;;;;;;5073285;28;20027;-70
2021/03/20 06:08:16;;;;;;;9.43;4.40;;;8.80;43.60;;;;;;5073561;28;20107;-70
2021/03/20 06:10:49;;;;;;;6.38;4.10;;;8.80;43.30;;;;;;5073329;28;20441;-70
2021/03/20 06:13:36;;;;;;;6.72;4.18;;;8.90;44.40;;;;;;5073117;28;20040;-71
2021/03/20 06:16:24;;;;;;;7.85;3.97;;;8.90;44.20;;;;;;5073174;28;20039;-74
2021/03/20 06:19:13;;;;;;;7.50;3.92;;;9.00;44.20;;;;;;5072820;28;20056;-72
2021/03/20 06:21:57;;;;;;;8.20;4.28;;;9.00;44.30;;;;;;5073236;28;20033;-78
2021/03/20 06:25:05;;;;;;;7.35;4.40;;;9.00;44.40;;;;;;5073729;28;20040;-78
2021/03/20 06:27:47;;;;;;;7.38;4.22;;;9.00;44.50;;;;;;5035942;28;20090;-79
2021/03/20 06:30:32;;;;;;;10.73;4.10;;;8.90;44.00;;;;;;5073787;28;20059;-79
2021/03/20 06:33:39;;;;;;;8.52;4.00;;;9.00;45.20;;;;;;5073746;28;20168;-80
2021/03/20 06:36:10;;;;;;;7.35;4.07;;;9.00;44.90;;;;;;5055586;28;20032;-73
2021/03/20 06:38:47;;;;;;;9.10;4.43;;;9.20;44.50;;;;;;5074054;28;20540;-74
2021/03/20 06:41:33;;;;;;;7.30;4.20;;;9.20;44.10;;;;;;5073348;28;20488;-78
2021/03/20 06:44:12;;;;;;;9.15;4.50;;;9.20;44.30;;;;;;5073707;28;20028;-75
2021/03/20 06:46:39;;;;;;;7.35;4.20;;;9.20;44.70;;;;;;5073327;28;20024;-75
2021/03/20 06:49:24;;;;;;;7.70;3.85;;;9.10;44.20;;;;;;5073190;28;20029;-75
2021/03/20 06:51:51;;;;;;;8.18;4.38;;;9.20;44.90;;;;;;5073285;28;20043;-77
2021/03/20 06:54:20;;;;;;;8.32;4.43;;;9.30;44.60;;;;;;5072928;28;20016;-76
2021/03/20 06:56:47;;;;;;;7.68;4.60;;;9.30;44.40;;;;;;5075378;28;20028;-78
2021/03/20 06:59:13;;;;;;;7.43;4.28;;;9.40;44.60;;;;;;5076539;28;20047;-79
2021/03/20 07:02:01;;;;;;;8.40;4.38;;;9.40;44.50;;;;;;5076341;28;20021;-79
2021/03/20 07:04:27;;;;;;;8.90;4.72;;;9.40;44.50;;;;;;5058472;28;20047;-80
2021/03/20 07:07:19;;;;;;;6.85;4.28;;;9.50;44.90;;;;;;5075926;28;20478;-73
2021/03/20 07:09:50;;;;;;;9.13;5.00;;;9.60;45.50;;;;;;5079414;28;20090;-77
2021/03/20 07:12:18;;;;;;;9.00;4.78;;;9.70;44.60;;;;;;5076447;28;20459;-78
2021/03/20 07:14:53;;;;;;;6.15;4.22;;;9.70;44.50;;;;;;5076779;28;20040;-80
2021/03/20 07:17:22;;;;;;;11.75;3.95;;;9.70;44.60;;;;;;5076039;28;20025;-74
2021/03/20 07:20:15;;;;;;;8.77;4.85;;;9.70;44.90;;;;;;5076083;28;20554;-79
2021/03/20 07:22:48;;;;;;;7.90;4.50;;;9.80;45.60;;;;;;5068503;28;20393;-77
2021/03/20 07:25:33;;;;;;;10.73;4.53;;;9.70;44.60;;;;;;5076329;28;20020;-76
2021/03/20 07:28:32;;;;;;;9.55;4.60;;;9.90;44.80;;;;;;5058209;28;20036;-80
2021/03/20 07:31:09;;;;;;;7.10;4.88;;;9.90;44.60;;;;;;5032746;28;20417;-75
2021/03/20 07:33:37;;;;;;;8.23;4.50;;;9.80;45.80;;;;;;5076102;28;20024;-78
2021/03/20 07:36:30;;;;;;;8.52;4.70;;;9.80;44.90;;;;;;5075566;28;20029;-81
2021/03/20 07:39:18;;;;;;;9.18;4.90;;;9.80;45.80;;;;;;5076042;28;20040;-77
2021/03/20 07:41:59;;;;;;;7.30;4.68;;;9.90;45.90;;;;;;5075668;28;20025;-78
2021/03/20 07:44:28;;;;;;;10.10;6.20;;;10.10;45.00;;;;;;5075781;28;20067;-75
2021/03/20 07:46:56;;;;;;;12.43;6.00;;;10.30;44.00;;;;;;5076270;28;20381;-77
2021/03/20 07:49:28;;;;;;;8.82;5.10;;;10.40;43.90;;;;;;5080154;28;20494;-80
2021/03/20 07:51:56;;;;;;;8.80;4.90;;;10.40;43.70;;;;;;5078237;28;20043;-77
2021/03/20 07:54:24;;;;;;;11.57;4.93;;;10.40;43.70;;;;;;5075853;28;20028;-74
2021/03/20 07:56:51;;;;;;;10.68;5.03;;;10.50;43.90;;;;;;5075170;28;20060;-79
2021/03/20 07:59:25;;;;;;;9.00;5.15;;;10.50;43.70;;;;;;5075505;28;20017;-78
2021/03/20 08:02:03;;;;;;;11.85;5.50;;;10.60;43.80;;;;;;5075263;28;20040;-70
2021/03/20 08:04:57;;;;;;;11.95;5.65;;;10.70;43.80;;;;;;5074998;28;20373;-70
2021/03/20 08:07:47;;;;;;;9.25;5.28;;;10.70;44.70;;;;;;5074515;28;20031;-73
2021/03/20 08:10:27;;;;;;;9.40;5.68;;;10.80;44.70;;;;;;5075150;28;20020;-70
2021/03/20 08:13:18;;;;;;;13.07;6.25;;;10.90;44.40;;;;;;5074861;28;20111;-74
2021/03/20 08:15:46;;;;;;;8.98;5.43;;;10.90;44.10;;;;;;5074729;28;20055;-71
2021/03/20 08:18:20;;;;;;;10.00;5.88;;;11.00;44.00;;;;;;5074399;28;20036;-72
2021/03/20 08:21:15;;;;;;;11.48;5.85;;;11.00;44.40;;;;;;5074676;28;20074;-77
2021/03/20 08:24:02;;;;;;;9.27;5.75;;;11.10;44.80;;;;;;5038217;28;20121;-70
2021/03/20 08:26:41;;;;;;;9.27;5.10;;;11.20;44.70;;;;;;5074325;28;20386;-72
2021/03/20 08:29:29;;;;;;;11.23;6.05;;;11.40;43.80;;;;;;5074484;28;20028;-71
2021/03/20 08:32:11;;;;;;;10.07;5.80;;;11.50;44.50;;;;;;5074294;28;20040;-72
2021/03/20 08:35:14;;;;;;;9.57;5.20;;;11.60;44.20;;;;;;5056180;28;20090;-73
2021/03/20 08:38:03;;;;;;;10.68;5.50;;;11.70;44.30;;;;;;5074250;28;20408;-78
2021/03/20 08:40:50;;;;;;;9.25;5.07;;;11.90;43.50;;;;;;5019632;28;20062;-74
2021/03/20 08:43:53;;;;;;;10.13;4.68;;;11.90;43.40;;;;;;5076295;28;20078;-72
2021/03/20 08:46:42;;;;;;;9.02;5.57;;;11.80;43.60;;;;;;5074395;28;20036;-75
2021/03/20 08:49:18;;;;;;;6.82;4.47;;;11.80;43.60;;;;;;5074453;28;20029;-74
2021/03/20 08:51:58;;;;;;;12.73;5.32;;;11.70;43.00;;;;;;5073662;28;20052;-72
2021/03/20 08:54:52;;;;;;;7.95;4.65;;;11.80;43.20;;;;;;5073565;28;20481;-74
2021/03/20 08:57:36;;;;;;;;;;;11.80;43.60;;;;;;5072195;28;20396;-72
2021/03/20 09:00:11;;;;;;;8.60;4.75;;;11.80;43.20;;;;;;5073913;28;19957;-72
2021/03/20 09:02:40;;;;;;;8.65;4.53;;;11.90;42.80;;;;;;5073819;28;20469;-72
2021/03/20 09:05:12;;;;;;;7.85;4.40;;;12.00;42.50;;;;;;5073569;28;20385;-73
2021/03/20 09:07:45;;;;;;;7.00;4.57;;;12.00;42.30;;;;;;5073999;28;20028;-74
2021/03/20 09:10:24;;;;;;;8.23;4.43;;;12.00;42.20;;;;;;5073827;28;20112;-74
2021/03/20 09:13:03;;;;;;;9.98;4.50;;;11.90;41.90;;;;;;5073576;28;20039;-75
2021/03/20 09:15:32;;;;;;;7.43;4.57;;;12.00;41.80;;;;;;5073497;28;20112;-72
2021/03/20 09:18:03;;;;;;;8.05;4.60;;;12.10;41.60;;;;;;5073199;28;20051;-74
2021/03/20 09:20:44;;;;;;;11.63;4.88;;;12.00;41.40;;;;;;5073762;28;20032;-75
2021/03/20 09:23:26;;;;;;;9.73;5.30;;;12.10;41.30;;;;;;5073693;28;20032;-74
2021/03/20 09:25:55;;;;;;;7.95;4.32;;;12.10;40.70;;;;;;5073337;28;20044;-72
2021/03/20 09:28:29;;;;;;;8.85;4.68;;;12.20;40.60;;;;;;5073436;28;20028;-70
2021/03/20 09:31:20;;;;;;;8.20;4.05;;;12.30;40.30;;;;;;5073527;28;20106;-70
2021/03/20 09:33:47;;;;;;;7.75;4.03;;;12.40;39.90;;;;;;5072910;28;20020;-71
2021/03/20 09:36:21;;;;;;;5.65;3.38;;;12.40;39.20;;;;;;5073392;28;20466;-73
2021/03/20 09:38:58;;;;;;;8.23;4.00;;;12.40;39.00;;;;;;5073319;28;20107;-75
2021/03/20 09:41:26;;;;;;;7.30;4.65;;;12.50;38.80;;;;;;5056013;28;20033;-72
2021/03/20 09:43:55;;;;;;;9.88;4.65;;;12.60;39.80;;;;;;5074196;28;20060;-70
2021/03/20 09:46:41;;;;;;;10.05;5.05;;;12.80;38.90;;;;;;5074001;28;20099;-71
2021/03/20 09:49:06;;;;;;;10.82;5.43;;;12.80;37.70;;;;;;5073189;28;20028;-73
2021/03/20 09:52:06;;;;;;;6.93;4.18;;;12.90;37.90;;;;;;5073222;28;20032;-74
2021/03/20 09:54:35;;;;;;;6.22;4.00;;;13.00;37.50;;;;;;5029352;28;20039;-73
2021/03/20 09:57:07;;;;;;;5.68;3.80;;;13.00;37.40;;;;;;5073021;28;20032;-77
2021/03/20 09:59:35;;;;;;;8.15;4.55;;;12.90;37.20;;;;;;5054851;28;20052;-75
2021/03/20 10:02:11;;;;;;;7.90;4.57;;;13.00;37.00;;;;;;5072721;28;20047;-74
2021/03/20 10:04:53;;;;;;;9.40;4.57;;;13.20;37.40;;;;;;5072800;28;20380;-75
2021/03/20 10:07:22;;;;;;;7.38;3.80;;;13.30;37.00;;;;;;5072724;28;20043;-74
2021/03/20 10:10:00;;;;;;;6.47;4.00;;;13.40;37.10;;;;;;5072808;28;20031;-76
2021/03/20 10:12:48;;;;;;;5.80;3.55;;;13.50;35.90;;;;;;5073357;28;20098;-72
2021/03/20 10:15:49;;;;;;;5.75;3.50;;;13.50;36.80;;;;;;5032695;28;20039;-71
2021/03/20 10:18:17;;;;;;;6.07;3.95;;;13.50;36.20;;;;;;5072366;28;20057;-70
2021/03/20 10:20:51;;;;;;;6.82;4.50;;;13.70;36.00;;;;;;5072898;28;20496;-72
2021/03/20 10:23:43;;;;;;;8.45;4.20;;;13.90;36.00;;;;;;5072842;28;20025;-72
2021/03/20 10:26:30;;;;;;;6.28;4.22;;;14.10;34.40;;;;;;5072967;28;20366;-72
2021/03/20 10:29:18;;;;;;;5.55;3.40;;;14.30;34.60;;;;;;5072937;28;20432;-74
2021/03/20 10:31:47;;;;;;;7.07;3.75;;;14.40;33.80;;;;;;5075490;28;20120;-75
2021/03/20 10:34:19;;;;;;;6.13;3.53;;;14.40;35.40;;;;;;5077626;28;20119;-73
2021/03/20 10:36:47;;;;;;;6.43;3.78;;;14.50;35.00;;;;;;5077584;28;20083;-76
2021/03/20 10:39:27;;;;;;;6.35;3.65;;;14.40;34.90;;;;;;5076263;28;20051;-79
2021/03/20 10:41:57;;;;;;;6.10;3.35;;;14.50;33.80;;;;;;5076130;28;20032;-80
2021/03/20 10:44:29;;;;;;;9.38;4.05;;;14.50;35.00;;;;;;5076120;28;20051;-72
2021/03/20 10:47:20;;;;;;;5.90;3.92;;;14.40;34.90;;;;;;5076486;28;20035;-72
2021/03/20 10:49:59;;;;;;;5.93;3.72;;;14.40;35.00;;;;;;5076402;28;20028;-72
2021/03/20 10:52:34;;;;;;;6.30;3.85;;;14.30;33.80;;;;;;5075900;28;20032;-72
2021/03/20 10:55:10;;;;;;;6.78;4.00;;;14.30;35.00;;;;;;5075820;28;20047;-76
2021/03/20 10:57:37;;;;;;;7.55;3.83;;;14.40;34.60;;;;;;5075648;28;20039;-74
2021/03/20 11:00:24;;;;;;;6.45;4.38;;;14.50;35.00;;;;;;5076044;28;20042;-72
2021/03/20 11:02:50;;;;;;;6.43;4.03;;;14.60;33.50;;;;;;5075840;28;20052;-72
2021/03/20 11:05:22;;;;;;;7.10;3.58;;;14.60;34.50;;;;;;5075752;28;20025;-70
2021/03/20 11:07:52;;;;;;;6.68;3.47;;;14.40;34.20;;;;;;5075715;28;20396;-73
2021/03/20 11:10:26;;;;;;;7.03;4.47;;;14.50;34.20;;;;;;5075494;28;20021;-71
2021/03/20 11:12:55;;;;;;;8.52;3.45;;;14.60;34.20;;;;;;5057013;28;20071;-74
2021/03/20 11:15:26;;;;;;;7.15;4.20;;;14.70;34.60;;;;;;5075103;28;20444;-71
2021/03/20 11:17:55;;;;;;;6.07;4.05;;;14.90;34.20;;;;;;5074851;28;20027;-71
2021/03/20 11:20:30;;;;;;;5.30;3.15;;;15.00;34.70;;;;;;5075320;28;20055;-78
2021/03/20 11:22:56;;;;;;;5.93;3.10;;;15.00;32.20;;;;;;5075458;28;20024;-72
2021/03/20 11:25:38;;;;;;;10.70;4.38;;;15.10;33.50;;;;;;5075568;28;20020;-73
2021/03/20 11:28:12;;;;;;;6.18;3.40;;;15.10;33.90;;;;;;5075633;28;20104;-72
2021/03/20 11:30:49;;;;;;;7.38;4.05;;;15.20;32.30;;;;;;5074838;28;20069;-75
2021/03/20 11:33:38;;;;;;;6.47;3.22;;;15.30;32.20;;;;;;5075200;28;20020;-72
2021/03/20 11:36:12;;;;;;;5.20;3.17;;;15.30;33.10;;;;;;5074742;28;20021;-71
2021/03/20 11:38:38;;;;;;;5.80;3.08;;;15.40;33.20;;;;;;5075246;28;20021;-71
2021/03/20 11:41:04;;;;;;;6.55;3.10;;;15.60;32.90;;;;;;5075743;28;20105;-76
2021/03/20 11:43:38;;;;;;;4.82;3.15;;;15.60;32.30;;;;;;5074156;28;20073;-76
2021/03/20 11:46:15;;;;;;;5.65;3.60;;;15.60;32.20;;;;;;5074677;28;20051;-71
2021/03/20 11:48:55;;;;;;;6.82;3.53;;;15.60;32.50;;;;;;5074887;28;20103;-71
2021/03/20 11:51:28;;;;;;;5.95;3.60;;;15.50;30.70;;;;;;5075081;28;20093;-76
2021/03/20 11:53:57;;;;;;;;;;;15.40;30.90;;;;;;5075289;28;20056;-75
2021/03/20 11:56:39;;;;;;;7.22;4.07;;;15.40;33.10;;;;;;5074375;28;19904;-73
2021/03/20 11:59:30;;;;;;;11.40;5.55;;;15.40;33.10;;;;;;5057321;28;20469;-81
2021/03/20 12:01:57;;;;;;;7.53;3.70;;;15.70;31.70;;;;;;5066708;28;20033;-72
2021/03/20 12:04:26;;;;;;;6.50;3.45;;;15.80;32.90;;;;;;5076135;28;20081;-77
2021/03/20 12:07:12;;;;;;;9.75;3.88;;;15.90;33.40;;;;;;5075133;28;20450;-74
2021/03/20 12:09:38;;;;;;;6.15;3.70;;;16.10;32.70;;;;;;5074963;28;20040;-71
2021/03/20 12:12:05;;;;;;;9.57;3.90;;;16.00;32.00;;;;;;5074694;28;20136;-74
2021/03/20 12:14:40;;;;;;;6.28;3.38;;;15.90;32.30;;;;;;5075606;28;20032;-73
2021/03/20 12:17:05;;;;;;;6.00;3.40;;;15.80;32.60;;;;;;5073528;28;20051;-77
2021/03/20 12:19:32;;;;;;;8.40;3.80;;;15.80;33.20;;;;;;5074610;28;20048;-77
2021/03/20 12:22:07;;;;;;;5.65;3.35;;;15.70;33.10;;;;;;5074549;28;20098;-73
2021/03/20 12:24:43;;;;;;;6.15;4.13;;;15.60;33.00;;;;;;5074388;28;20050;-71
2021/03/20 12:27:31;;;;;;;6.65;3.20;;;15.60;31.60;;;;;;5074240;28;20041;-73
2021/03/20 12:30:21;;;;;;;7.03;3.72;;;15.70;33.20;;;;;;5074254;28;20531;-72
2021/03/20 12:32:52;;;;;;;7.85;3.85;;;15.60;33.10;;;;;;5073222;28;20040;-73
2021/03/20 12:35:18;;;;;;;7.45;3.42;;;15.70;33.30;;;;;;5073996;28;20134;-74
2021/03/20 12:37:49;;;;;;;5.38;3.30;;;15.70;32.80;;;;;;5074070;28;20381;-75
2021/03/20 12:40:17;;;;;;;6.63;3.00;;;15.70;33.40;;;;;;5073772;28;20378;-74
2021/03/20 12:42:43;;;;;;;7.03;4.07;;;15.60;33.00;;;;;;5073438;28;20020;-74
2021/03/20 12:45:16;;;;;;;6.88;3.90;;;15.50;33.00;;;;;;5073637;28;20104;-71
2021/03/20 12:47:41;;;;;;;6.10;3.15;;;15.40;33.00;;;;;;5073857;28;20031;-72
2021/03/20 12:50:08;;;;;;;5.35;3.55;;;15.40;33.40;;;;;;5073432;28;20024;-73
2021/03/20 12:52:37;;;;;;;5.15;3.05;;;15.50;33.00;;;;;;5073002;28;20131;-74
2021/03/20 12:55:05;;;;;;;5.85;3.20;;;15.60;33.30;;;;;;5072585;28;20035;-73
2021/03/20 12:57:35;;;;;;;5.38;2.97;;;15.70;32.80;;;;;;5073175;28;20021;-72
2021/03/20 13:00:05;;;;;;;6.93;3.20;;;15.90;33.30;;;;;;5073721;28;20024;-76
2021/03/20 13:02:31;;;;;;;5.57;2.92;;;15.90;32.70;;;;;;5073577;28;20024;-74
2021/03/20 13:04:57;;;;;;;4.68;2.72;;;15.80;33.00;;;;;;5073371;28;20050;-72
2021/03/20 13:07:24;;;;;;;5.43;2.78;;;15.70;32.80;;;;;;5074011;28;20104;-72
2021/03/20 13:09:50;;;;;;;4.55;2.90;;;15.70;32.60;;;;;;5074046;28;20035;-72
2021/03/20 13:12:17;;;;;;;5.80;2.90;;;15.80;33.10;;;;;;5073436;28;20102;-72
2021/03/20 13:14:43;;;;;;;7.10;3.17;;;16.00;33.10;;;;;;5073476;28;20378;-74
2021/03/20 13:17:10;;;;;;;6.97;3.33;;;16.10;32.50;;;;;;5073565;28;20109;-76
2021/03/20 13:19:37;;;;;;;7.57;2.97;;;16.20;32.50;;;;;;5073347;28;20051;-71
2021/03/20 13:22:04;;;;;;;6.25;2.67;;;16.20;32.50;;;;;;5073154;28;20371;-77
2021/03/20 13:24:31;;;;;;;9.50;5.63;;;16.00;32.00;;;;;;5073260;28;20108;-77
2021/03/20 13:26:57;;;;;;;6.47;3.88;;;16.00;32.80;;;;;;5073443;28;20035;-73
2021/03/20 13:29:23;;;;;;;5.25;3.22;;;16.10;32.40;;;;;;5073496;28;20447;-75
2021/03/20 13:31:49;;;;;;;6.93;3.17;;;16.20;31.90;;;;;;5073564;28;20060;-72
2021/03/20 13:34:15;;;;;;;5.80;2.88;;;16.30;31.70;;;;;;5073336;28;20031;-73